createdAt,value
2022-09-09T06:12:15.530Z,1.20
2022-09-09T06:15:22.230Z,1.52
2022-09-09T06:18:26.917Z,1.52
2022-09-09T06:21:33.959Z,1.65
2022-09-09T06:24:38.889Z,1.53
2022-09-09T06:27:43.770Z,1.40
2022-09-09T06:30:58.161Z,1.67
2022-09-09T06:34:09.335Z,1.00
2022-09-09T06:37:16.936Z,1.60
2022-09-09T06:40:24.665Z,1.10
2022-09-09T06:43:27.962Z,1.60
2022-09-09T06:46:34.478Z,1.42
2022-09-09T06:49:38.721Z,1.50
2022-09-09T06:52:48.919Z,1.50
2022-09-09T06:55:52.934Z,1.50
2022-09-09T06:58:59.685Z,1.55
2022-09-09T07:02:07.086Z,1.30
2022-09-09T07:05:10.944Z,1.25
2022-09-09T07:08:18.530Z,1.52
2022-09-09T07:11:24.621Z,1.33
2022-09-09T07:14:28.300Z,1.60
2022-09-09T07:17:36.032Z,1.30
2022-09-09T07:20:40.717Z,1.38
2022-09-09T07:23:45.586Z,1.38
2022-09-09T07:26:49.790Z,1.47
2022-09-09T07:29:55.420Z,1.20
2022-09-09T07:32:58.785Z,1.05
2022-09-09T07:36:13.196Z,1.40
2022-09-09T07:39:18.613Z,1.50
2022-09-09T07:42:26.829Z,1.60
2022-09-09T07:45:30.203Z,1.30
2022-09-09T07:48:33.560Z,1.52
2022-09-09T07:51:42.223Z,1.45
2022-09-09T07:54:46.845Z,1.63
2022-09-09T07:57:50.889Z,1.63
2022-09-09T08:00:55.906Z,1.50
2022-09-09T08:04:07.434Z,1.60
2022-09-09T08:07:11.871Z,1.38
2022-09-09T08:10:33.866Z,1.80
2022-09-09T08:13:38.774Z,1.23
2022-09-09T08:16:51.159Z,1.77
2022-09-09T08:19:57.934Z,1.35
2022-09-09T08:23:03.898Z,1.00
2022-09-09T08:26:16.456Z,1.30
2022-09-09T08:29:20.343Z,1.00
2022-09-09T08:32:25.459Z,0.80
2022-09-09T08:35:34.146Z,1.17
2022-09-09T08:38:39.597Z,1.00
2022-09-09T08:42:07.896Z,0.98
2022-09-09T08:45:43.550Z,1.17
2022-09-09T08:48:56.269Z,1.02
2022-09-09T08:52:01.095Z,0.85
2022-09-09T08:55:29.733Z,1.10
2022-09-09T08:58:36.464Z,2.15
2022-09-09T09:01:52.328Z,1.20
2022-09-09T09:05:25.057Z,0.80
2022-09-09T09:08:32.309Z,1.00
2022-09-09T09:11:40.099Z,0.90
2022-09-09T09:14:45.576Z,0.95
2022-09-09T09:17:50.011Z,0.90
2022-09-09T09:21:01.505Z,0.80
2022-09-09T09:24:28.919Z,0.70
2022-09-09T09:27:38.024Z,0.80
2022-09-09T09:31:12.090Z,0.95
2022-09-09T09:34:24.647Z,1.40
2022-09-09T09:37:36.480Z,0.63
2022-09-09T09:40:51.494Z,1.67
2022-09-09T09:43:55.837Z,0.80
2022-09-09T09:47:07.914Z,1.15
2022-09-09T09:50:20.289Z,0.90
2022-09-09T09:53:34.677Z,0.80
2022-09-09T09:56:37.876Z,1.30
2022-09-09T09:59:46.955Z,0.95
2022-09-09T10:03:02.166Z,0.88
2022-09-09T10:06:08.707Z,0.60
2022-09-09T10:09:29.766Z,0.63
2022-09-09T10:12:32.602Z,0.70
2022-09-09T10:16:07.460Z,0.60
2022-09-09T10:19:32.934Z,0.70
2022-09-09T10:22:35.965Z,0.40
2022-09-09T10:26:07.915Z,0.68
2022-09-09T10:29:20.219Z,0.82
2022-09-09T10:32:35.459Z,0.95
2022-09-09T10:35:43.974Z,0.90
2022-09-09T10:38:49.628Z,0.93
2022-09-09T10:42:03.775Z,1.73
2022-09-09T10:45:20.492Z,1.10
2022-09-09T10:48:36.003Z,1.10
2022-09-09T10:51:50.893Z,1.35
2022-09-09T10:54:57.560Z,1.27
2022-09-09T10:58:03.726Z,0.80
2022-09-09T11:01:37.717Z,0.75
2022-09-09T11:04:43.414Z,0.75
2022-09-09T11:07:58.736Z,1.10
2022-09-09T11:11:19.083Z,0.90
2022-09-09T11:14:25.721Z,0.90
2022-09-09T11:17:37.921Z,0.80
2022-09-09T11:20:41.292Z,0.68
2022-09-09T11:23:51.348Z,0.95
2022-09-09T11:27:05.348Z,0.93
2022-09-09T11:30:51.213Z,0.63
2022-09-09T11:34:06.624Z,0.73
2022-09-09T11:37:33.443Z,1.10
2022-09-09T11:40:36.662Z,0.98
2022-09-09T11:43:52.488Z,0.63
2022-09-09T11:46:55.386Z,0.80
2022-09-09T11:50:16.650Z,0.82
2022-09-09T11:53:24.086Z,0.70
2022-09-09T11:56:28.280Z,0.82
2022-09-09T11:59:33.263Z,0.73
2022-09-09T12:02:37.837Z,0.80
2022-09-09T12:05:46.929Z,0.55
2022-09-09T12:08:56.309Z,0.80
2022-09-09T12:12:14.150Z,1.25
2022-09-09T12:15:17.078Z,0.83
2022-09-09T12:18:35.140Z,0.80
2022-09-09T12:21:45.254Z,0.88
2022-09-09T12:25:10.632Z,0.80
2022-09-09T12:28:21.361Z,0.77
2022-09-09T12:31:49.920Z,0.87
2022-09-09T12:35:24.057Z,0.75
2022-09-09T12:38:39.856Z,1.10
2022-09-09T12:41:42.714Z,1.20
2022-09-09T12:45:00.089Z,1.10
2022-09-09T12:48:16.753Z,1.00
2022-09-09T12:51:28.306Z,0.85
2022-09-09T12:54:31.246Z,1.20
2022-09-09T12:57:39.595Z,1.10
2022-09-09T13:00:52.102Z,1.00
2022-09-09T13:03:56.110Z,1.10
2022-09-09T13:07:11.048Z,1.80
2022-09-09T13:10:25.494Z,1.35
2022-09-09T13:13:41.868Z,1.13
2022-09-09T13:16:44.805Z,0.98
2022-09-09T13:19:48.141Z,0.90
2022-09-09T13:22:53.950Z,1.00
2022-09-09T13:26:01.317Z,0.80
2022-09-09T13:29:20.840Z,0.70
2022-09-09T13:32:25.655Z,1.08
2022-09-09T13:35:28.645Z,1.00
2022-09-09T13:38:36.841Z,1.10
2022-09-09T13:41:48.027Z,1.10
2022-09-09T13:44:50.833Z,0.80
2022-09-09T13:47:56.614Z,1.02
2022-09-09T13:51:08.000Z,0.90
2022-09-09T13:54:12.514Z,1.08
2022-09-09T13:57:19.293Z,1.10
2022-09-09T14:00:24.353Z,0.90
2022-09-09T14:03:27.233Z,0.98
2022-09-09T14:06:38.421Z,0.93
2022-09-09T14:09:41.732Z,0.73
2022-09-09T14:12:44.668Z,1.00
2022-09-09T14:15:47.444Z,0.70
2022-09-09T14:18:50.569Z,0.70
2022-09-09T14:21:53.472Z,0.70
2022-09-09T14:24:56.333Z,0.65
2022-09-09T14:27:59.182Z,1.00
2022-09-09T14:31:03.490Z,0.90
2022-09-09T14:34:07.250Z,0.98
2022-09-09T14:37:10.155Z,0.70
2022-09-09T14:40:13.139Z,0.95
2022-09-09T14:43:16.233Z,1.05
2022-09-09T14:46:20.983Z,0.90
2022-09-09T14:49:23.937Z,0.93
2022-09-09T14:52:27.070Z,0.90
2022-09-09T14:55:30.398Z,0.90
2022-09-09T14:58:33.674Z,0.68
2022-09-09T15:01:36.717Z,0.80
2022-09-09T15:04:39.631Z,1.00
2022-09-09T15:07:42.448Z,0.73
2022-09-09T15:10:46.121Z,0.60
2022-09-09T15:13:54.024Z,1.13
2022-09-09T15:16:56.939Z,0.93
2022-09-09T15:20:00.133Z,0.80
2022-09-09T15:23:02.989Z,0.77
2022-09-09T15:26:06.830Z,0.80
2022-09-09T15:29:10.133Z,0.80
2022-09-09T15:32:13.101Z,1.10
2022-09-09T15:35:16.569Z,0.75
2022-09-09T15:38:20.696Z,1.07
2022-09-09T15:41:24.038Z,0.55
2022-09-09T15:44:26.848Z,0.93
2022-09-09T15:47:29.643Z,0.60
2022-09-09T15:50:33.413Z,0.77
2022-09-09T15:53:36.200Z,0.77
2022-09-09T15:56:39.312Z,0.80
2022-09-09T15:59:42.056Z,1.05
2022-09-09T16:02:44.979Z,0.90
2022-09-09T16:05:52.503Z,0.65
2022-09-09T16:08:57.071Z,0.97
2022-09-09T16:12:02.092Z,0.90
2022-09-09T16:15:05.352Z,0.85
2022-09-09T16:18:08.323Z,0.60
2022-09-09T16:21:17.011Z,0.85
2022-09-09T16:24:20.889Z,0.97
2022-09-09T16:27:24.369Z,0.80
2022-09-09T16:30:27.286Z,0.80
2022-09-09T16:33:31.679Z,0.90
2022-09-09T16:36:36.753Z,0.70
2022-09-09T16:39:39.762Z,0.87
2022-09-09T16:42:43.232Z,1.00
2022-09-09T16:45:46.454Z,0.65
2022-09-09T16:48:50.536Z,0.60
2022-09-09T16:51:56.148Z,0.80
2022-09-09T16:54:58.986Z,0.60
2022-09-09T16:58:01.947Z,0.68
2022-09-09T17:01:06.112Z,0.73
2022-09-09T17:04:14.909Z,0.60
2022-09-09T17:07:19.770Z,1.00
2022-09-09T17:10:23.597Z,0.60
2022-09-09T17:13:26.751Z,0.65
2022-09-09T17:16:32.607Z,0.90
2022-09-09T17:19:35.734Z,0.80
2022-09-09T17:22:38.770Z,0.82
2022-09-09T17:25:42.606Z,0.73
2022-09-09T17:28:46.752Z,0.82
2022-09-09T17:31:49.675Z,0.70
2022-09-09T17:34:53.538Z,0.80
2022-09-09T17:37:57.253Z,0.85
2022-09-09T17:41:09.859Z,0.80
2022-09-09T17:44:12.817Z,0.70
2022-09-09T17:47:15.713Z,0.80
2022-09-09T17:50:19.545Z,0.60
2022-09-09T17:53:24.155Z,0.88
2022-09-09T17:56:31.606Z,0.83
2022-09-09T17:59:34.649Z,0.70
2022-09-09T18:02:39.257Z,0.70
2022-09-09T18:05:42.270Z,0.60
2022-09-09T18:08:53.568Z,0.77
2022-09-09T18:11:58.909Z,0.60
2022-09-09T18:15:04.098Z,0.70
2022-09-09T18:18:08.622Z,0.70
2022-09-09T18:21:12.014Z,0.60
2022-09-09T18:24:17.846Z,0.82
2022-09-09T18:27:20.883Z,0.80
2022-09-09T18:30:25.733Z,0.77
2022-09-09T18:33:29.913Z,0.77
2022-09-09T18:36:36.378Z,0.80
2022-09-09T18:39:40.485Z,0.70
2022-09-09T18:42:43.614Z,0.60
2022-09-09T18:45:46.804Z,0.68
2022-09-09T18:48:50.986Z,0.70
2022-09-09T18:51:54.362Z,0.65
2022-09-09T18:54:57.458Z,0.75
2022-09-09T18:58:00.588Z,0.53
2022-09-09T19:01:06.584Z,0.77
2022-09-09T19:04:10.043Z,0.63
2022-09-09T19:07:13.479Z,0.82
2022-09-09T19:10:16.692Z,0.80
2022-09-09T19:13:20.237Z,0.77
2022-09-09T19:16:25.134Z,0.60
2022-09-09T19:19:31.380Z,0.98
2022-09-09T19:22:34.974Z,0.70
2022-09-09T19:25:38.498Z,0.82
2022-09-09T19:28:41.643Z,0.60
2022-09-09T19:32:09.480Z,0.80
2022-09-09T19:35:11.324Z,0.80
2022-09-09T19:38:14.867Z,0.60
2022-09-09T19:41:20.566Z,0.88
2022-09-09T19:44:23.595Z,0.63
2022-09-09T19:47:26.736Z,0.80
2022-09-09T19:50:29.915Z,0.70
2022-09-09T19:53:36.763Z,0.65
2022-09-09T19:56:41.677Z,1.00
2022-09-09T19:59:45.035Z,0.93
2022-09-09T20:03:18.698Z,0.60
2022-09-09T20:06:26.661Z,0.85
2022-09-09T20:09:30.589Z,0.80
2022-09-09T20:12:33.565Z,0.70
2022-09-09T20:15:36.506Z,0.70
2022-09-09T20:18:42.941Z,0.70
2022-09-09T20:21:50.563Z,0.77
2022-09-09T20:24:53.523Z,0.60
2022-09-09T20:27:56.438Z,0.63
2022-09-09T20:31:08.516Z,0.60
2022-09-09T20:34:14.280Z,0.80
2022-09-09T20:37:17.818Z,0.80
2022-09-09T20:40:20.629Z,0.80
2022-09-09T20:43:23.649Z,0.63
2022-09-09T20:46:30.110Z,0.73
2022-09-09T20:49:35.414Z,0.50
2022-09-09T20:52:38.238Z,0.80
2022-09-09T20:55:41.062Z,0.70
2022-09-09T20:58:45.038Z,0.60
2022-09-09T21:01:48.829Z,0.70
2022-09-09T21:04:51.731Z,0.70
2022-09-09T21:07:55.556Z,0.80
2022-09-09T21:10:58.489Z,0.70
2022-09-09T21:14:02.396Z,0.80
2022-09-09T21:17:05.395Z,0.50
2022-09-09T21:20:09.175Z,0.50
2022-09-09T21:23:14.009Z,0.88
2022-09-09T21:26:20.565Z,0.60
2022-09-09T21:29:24.345Z,0.60
2022-09-09T21:32:27.740Z,0.70
2022-09-09T21:35:35.263Z,0.80
2022-09-09T21:38:40.522Z,0.75
2022-09-09T21:41:43.627Z,0.70
2022-09-09T21:44:46.444Z,0.50
2022-09-09T21:47:49.838Z,0.50
2022-09-09T21:50:54.382Z,0.60
2022-09-09T21:53:57.564Z,0.70
2022-09-09T21:57:00.465Z,0.82
2022-09-09T22:00:12.815Z,0.50
2022-09-09T22:03:17.661Z,0.70
2022-09-09T22:06:20.667Z,0.80
2022-09-09T22:09:23.693Z,0.60
2022-09-09T22:12:26.576Z,0.85
2022-09-09T22:15:31.191Z,0.90
2022-09-09T22:18:34.829Z,0.60
2022-09-09T22:21:37.899Z,0.60
2022-09-09T22:24:40.788Z,0.80
2022-09-09T22:27:43.671Z,0.80
2022-09-09T22:30:47.515Z,0.70
2022-09-09T22:33:51.575Z,0.63
2022-09-09T22:36:55.234Z,0.50
2022-09-09T22:39:58.117Z,0.60
2022-09-09T22:43:01.536Z,0.65
2022-09-09T22:46:04.708Z,0.80
2022-09-09T22:49:07.873Z,0.57
2022-09-09T22:52:11.382Z,0.90
2022-09-09T22:55:14.340Z,0.70
2022-09-09T22:58:17.297Z,0.60
2022-09-09T23:01:21.194Z,0.80
2022-09-09T23:04:25.445Z,0.60
2022-09-09T23:07:28.427Z,0.90
2022-09-09T23:10:33.328Z,0.70
2022-09-09T23:13:40.106Z,0.63
2022-09-09T23:16:45.239Z,0.60
2022-09-09T23:19:57.563Z,0.50
2022-09-09T23:23:01.424Z,0.70
2022-09-09T23:26:05.677Z,0.55
2022-09-09T23:29:13.858Z,0.40
2022-09-09T23:32:17.770Z,0.80
2022-09-09T23:35:20.684Z,0.73
2022-09-09T23:38:23.749Z,0.50
2022-09-09T23:41:28.306Z,0.85
2022-09-09T23:44:31.405Z,0.60
2022-09-09T23:47:34.259Z,0.57
2022-09-09T23:50:37.187Z,0.80
2022-09-09T23:53:41.136Z,0.63
2022-09-09T23:56:44.764Z,0.45
2022-09-09T23:59:47.506Z,0.60
